• Join FlightAware (Why Join?)
  • Login
  • US Flag 
04:01PM EST


 

Airport Tracker/Info


-or-


 

Live Flight TrackerFlight Track Log ✈ UAL906 ✈ 12-Jun-2013 ✈ EDDF / FRA - KORD

Flight Track Log - Related Links

Times and Time Zones

All times are in EDT time to prevent confusion due to time zone crossing. See the UAL906 flight status page for this flight to view local times or setup timezone preferences in your user account.

Time Position Orientation Groundspeed Altitude Reporting Facility
EDT Latitude Longitude Course Direction KTS MPH feet Rate Location/Type
07:12AM 50.0270 8.4970 269° West 197 227 1,700  Level FlightAware
07:12AM 50.0290 8.4680 276° West 198 228 2,500 1,740 Climbing FlightAware
07:13AM 50.0230 8.3800 264° West 229 264 4,000 1,620 Climbing FlightAware
07:14AM 50.0180 8.3350 260° West 245 282 4,800 2,100 Climbing FlightAware
07:14AM 50.0140 8.2910 262° West 253 291 5,800 1,980 Climbing FlightAware
07:15AM 50.0240 8.2370 286° West 274 315 6,600 1,980 Climbing FlightAware
07:15AM 50.0320 8.2100 295° West 282 325 7,300 2,340 Climbing FlightAware
07:15AM 50.0460 8.1630 295° West 278 320 8,300 2,400 Climbing FlightAware
07:16AM 50.0650 8.1110 300° West 284 327 9,500 1,800 Climbing FlightAware
07:17AM 50.0970 8.0450 307° West 309 356 10,400 1,320 Climbing FlightAware
07:17AM 50.1360 7.9700 309° West 335 386 11,300 1,320 Climbing FlightAware
07:18AM 50.1840 7.8770 309° West 360 414 12,400 1,800 Climbing FlightAware
07:19AM 50.2310 7.7850 309° West 361 415 14,100 1,920 Climbing FlightAware
07:19AM 50.2800 7.7200 320° Northwest 373 429 15,200 1,440 Climbing FlightAware
07:21AM 50.3750 7.6560 337° Northwest 385 443 16,800 1,680 Climbing FlightAware
07:22AM 50.4810 7.5840 337° Northwest 384 442 18,700 1,680 Climbing FlightAware
07:22AM 50.5570 7.5290 335° Northwest 402 463 19,600 1,260 Climbing FlightAware
07:23AM 50.6120 7.4750 328° Northwest 403 464 20,400 1,320 Climbing FlightAware
07:24AM 50.6930 7.3910 327° Northwest 412 474 21,500 1,500 Climbing FlightAware
07:24AM 50.7590 7.3230 327° Northwest 410 472 22,700 1,500 Climbing FlightAware
07:26AM 50.8690 7.2100 327° Northwest 422 486 24,300 1,260 Climbing FlightAware
07:26AM 50.9360 7.1120 317° Northwest 420 483 25,100 1,140 Climbing FlightAware
07:27AM 50.9690 7.0210 300° West 427 491 25,800 1,140 Climbing FlightAware
07:28AM 51.0140 6.8940 299° West 431 496 26,700 1,200 Climbing FlightAware
07:28AM 51.0570 6.7700 299° West 436 502 27,600 1,200 Climbing FlightAware
07:29AM 51.0930 6.6630 298° West 435 501 28,400 1,260 Climbing FlightAware
07:30AM 51.1340 6.5450 299° West 436 502 29,300 1,080 Climbing FlightAware
07:30AM 51.1690 6.4440 299° West 438 504 29,900 840 Climbing FlightAware
07:31AM 51.2200 6.2920 298° West 442 509 30,600 900 Climbing FlightAware
07:32AM 51.2640 6.1830 303° West 444 511 31,300 1,320 Climbing FlightAware
07:33AM 51.3270 6.0810 315° West 436 502 32,500 1,380 Climbing FlightAware
07:33AM 51.3860 5.9940 317° Northwest 430 495 33,300 1,080 Climbing FlightAware
07:34AM 51.4450 5.9060 317° Northwest 424 488 34,000 480 Climbing FlightAware
07:35AM 51.5060 5.8140 317° Northwest 424 488 34,000  Level FlightAware
07:35AM 51.5660 5.7250 317° Northwest 424 488 34,000  Level FlightAware
07:36AM 51.6210 5.6420 317° Northwest 423 487 34,000 -120 Level FlightAware
07:36AM 51.6601 5.5791 317° Northwest 482 555 33,900  Descending FlightAware UK
07:37AM 51.6880 5.5420 317° Northwest 423 487 34,000 120 Climbing FlightAware
07:37AM 51.7279 5.4761 317° Northwest 484 557 34,000  Level FlightAware UK
07:37AM 51.7470 5.4520 317° Northwest 423 487 34,000  Level FlightAware
07:38AM 51.8030 5.3670 317° Northwest 422 486 34,000 -120 Level FlightAware
07:39AM 51.8396 5.3087 317° Northwest 482 555 33,900  Descending FlightAware UK
07:39AM 51.8660 5.2710 317° Northwest 422 486 34,000 60 Climbing FlightAware
07:40AM 51.9220 5.1840 316° Northwest 422 486 34,000  Level FlightAware
07:40AM 51.9840 5.0820 315° West 418 481 34,000  Level FlightAware
07:41AM 52.0310 4.9920 310° West 417 480 34,000  Level FlightAware
07:42AM 52.0810 4.8900 309° West 415 478 34,000  Level FlightAware
07:42AM 52.1293 4.7945 309° West 484 557 34,000  Level FlightAware UK
07:42AM 52.1350 4.7770 309° West 416 479 34,000  Level FlightAware
07:43AM 52.1775 4.6901 309° West 484 557 34,000  Level FlightAware UK
07:43AM 52.1840 4.6780 309° West 416 479 34,000 -240 Level FlightAware
07:43AM 52.2125 4.6161 309° West 484 557 33,900  Descending FlightAware UK
07:44AM 52.2270 4.5890 309° West 414 476 34,000 180 Climbing FlightAware
07:44AM 52.2501 4.5445 309° West 484 557 34,000  Level FlightAware UK
07:44AM 52.2860 4.4690 309° West 414 476 34,000  Level FlightAware
07:45AM 52.3300 4.3780 308° West 412 474 34,000  Level FlightAware
07:46AM 52.3790 4.2760 308° West 412 474 34,000  Level FlightAware
07:46AM 52.4054 4.2218 308° West 482 555 34,000  Level FlightAware UK
07:47AM 52.4350 4.1600 308° West 412 474 34,000 -120 Level FlightAware
07:47AM 52.4835 4.0604 308° West 480 552 33,900  Descending FlightAware UK
07:47AM 52.4820 4.0610 308° West 412 474 34,000 120 Climbing FlightAware
07:48AM 52.5320 3.9560 308° West 413 475 34,000  Level FlightAware
07:49AM 52.5790 3.8570 308° West 412 474 34,000 -120 Level FlightAware
07:49AM 52.6306 3.7496 308° West 482 555 33,900  Descending FlightAware UK
07:49AM 52.6290 3.7520 308° West 412 474 34,000 60 Climbing FlightAware
07:50AM 52.7005 3.6014 308° West 484 557 34,000  Level FlightAware UK
07:50AM 52.6920 3.6180 308° West 411 473 34,000 -240 Level FlightAware
07:51AM 52.7354 3.5271 308° West 482 555 33,900  Descending FlightAware UK
07:51AM 52.7550 3.4830 308° West 411 473 34,000 60 Climbing FlightAware
07:52AM 52.8090 3.3680 308° West 411 473 34,000 -120 Level FlightAware
07:53AM 52.8461 3.2682 308° West 486 559 33,900  Descending FlightAware UK
07:53AM 52.8500 3.2530 308° West 402 463 34,000  Climbing FlightAware
07:53AM 52.8689 3.1648 308° West 486 559 33,900  Descending FlightAware UK
07:53AM 52.8740 3.1380 308° West 400 460 34,000 120 Climbing FlightAware
07:54AM 52.8921 3.0430 308° West 486 559 34,000  Level FlightAware UK
07:54AM 52.8980 3.0100 308° West 399 459 34,000  Level FlightAware
07:54AM 52.9086 2.9559 308° West 486 559 34,000  Level FlightAware UK
07:55AM 52.9210 2.8900 308° West 397 457 34,000  Level FlightAware
07:55AM 52.9420 2.7740 287° West 396 456 34,000 -120 Level FlightAware
07:56AM 52.9572 2.6945 287° West 484 557 33,900  Descending FlightAware UK
07:56AM 52.9660 2.6440 287° West 396 456 34,000 120 Climbing FlightAware
07:57AM 52.9829 2.5562 287° West 486 559 34,000  Level FlightAware UK
07:57AM 52.9880 2.5300 287° West 396 456 34,000 -180 Level FlightAware
07:57AM 53.0052 2.4346 287° West 484 557 33,900  Descending FlightAware UK
07:58AM 53.0120 2.3980 287° West 394 453 34,000 180 Climbing FlightAware
07:58AM 53.0210 2.3480 287° West 486 559 34,000  Level FlightAware UK
07:58AM 53.0320 2.2840 287° West 394 453 34,000  Level FlightAware
07:59AM 53.0458 2.2096 287° West 395 455 34,000 -180 Level FlightAware ADS-B
07:59AM 53.0586 2.1396 287° West 486 559 33,900  Descending FlightAware UK
07:59AM 53.0647 2.1047 287° West 395 455 34,000  Climbing FlightAware ADS-B
08:00AM 53.0741 2.0529 287° West 484 557 33,900  Descending FlightAware UK
08:00AM 53.0832 2.0013 287° West 393 452 34,000 120 Climbing FlightAware ADS-B
08:00AM 53.0956 1.9315 287° West 484 557 34,000  Level FlightAware UK
08:00AM 53.1006 1.9035 287° West 392 451 34,000  Level FlightAware ADS-B
08:01AM 53.1163 1.8152 287° West 392 451 34,000  Level FlightAware ADS-B
08:01AM 53.1295 1.7415 287° West 484 557 34,000  Level FlightAware UK
08:01AM 53.1337 1.7165 287° West 391 450 34,000  Level FlightAware ADS-B
08:02AM 53.1447 1.6550 287° West 482 555 34,000  Level FlightAware UK
08:02AM 53.1494 1.6260 287° West 391 450 34,000  Level FlightAware ADS-B
08:02AM 53.1599 1.5684 287° West 482 555 34,000  Level FlightAware UK
08:03AM 53.1714 1.4996 287° West 391 450 34,000  Level FlightAware ADS-B
08:03AM 53.1865 1.4125 286° West 391 450 34,000  Level FlightAware ADS-B
08:04AM 53.1956 1.3609 286° West 482 555 34,000  Level FlightAware UK
08:04AM 53.2029 1.3175 286° West 391 450 34,000  Level FlightAware ADS-B
08:04AM 53.2134 1.2569 286° West 484 557 34,000  Level FlightAware UK
08:04AM 53.2180 1.2291 286° West 391 450 34,000  Level FlightAware ADS-B
08:05AM 53.2310 1.1528 286° West 484 557 34,000  Level FlightAware UK
08:05AM 53.2337 1.1368 286° West 392 451 34,000  Level FlightAware ADS-B
08:05AM 53.2488 1.0491 286° West 486 559 34,000  Level FlightAware UK
08:06AM 53.2633 0.9620 286° West 484 557 34,000  Level FlightAware UK
08:06AM 53.2673 0.9382 286° West 391 450 34,000  Level FlightAware ADS-B
08:06AM 53.2830 0.8445 286° West 390 449 34,000  Level FlightAware ADS-B
08:07AM 53.2923 0.7882 286° West 482 555 34,000  Level FlightAware UK
08:07AM 53.3004 0.7402 286° West 389 448 34,000  Level FlightAware ADS-B
08:08AM 53.3208 0.6170 286° West 389 448 34,000  Level FlightAware ADS-B
08:08AM 53.3356 0.5267 285° West 388 447 34,000  Level FlightAware ADS-B
08:09AM 53.3438 0.4769 285° West 484 557 34,000  Level FlightAware UK
08:09AM 53.3510 0.4330 285° West 388 447 34,000  Level FlightAware ADS-B
08:09AM 53.3652 0.3458 285° West 388 447 34,000  Level FlightAware ADS-B
08:10AM 53.3809 0.2484 285° West 387 445 34,000  Level FlightAware ADS-B
08:10AM 53.3958 0.1565 285° West 386 444 34,000  Level FlightAware ADS-B
08:11AM 53.4102 0.0660 285° West 386 444 34,000  Level FlightAware ADS-B
08:12AM 53.4248 -0.0258 285° West 386 444 34,000  Level FlightAware ADS-B
08:12AM 53.4414 -0.1303 285° West 385 443 34,000 -120 Level FlightAware ADS-B
08:12AM 53.4489 -0.1786 285° West 482 555 33,900  Descending FlightAware UK
08:13AM 53.4551 -0.2178 285° West 384 442 34,000 60 Climbing FlightAware ADS-B
08:13AM 53.4719 -0.3256 285° West 386 444 34,000  Level FlightAware ADS-B
08:14AM 53.4874 -0.4248 285° West 386 444 34,000  Level FlightAware ADS-B
08:14AM 53.4945 -0.4725 285° West 484 557 34,000  Level FlightAware UK
08:15AM 53.5165 -0.6137 285° West 386 444 34,000  Level FlightAware ADS-B
08:15AM 53.5240 -0.6629 285° West 484 557 34,000  Level FlightAware UK
08:15AM 53.5301 -0.7028 285° West 386 444 34,000  Level FlightAware ADS-B
08:16AM 53.5464 -0.8105 284° West 386 444 34,000  Level FlightAware ADS-B
08:17AM 53.5617 -0.9115 284° West 385 443 34,000  Level FlightAware ADS-B
08:17AM 53.5749 -0.9996 284° West 384 442 34,000  Level FlightAware ADS-B
08:17AM 53.5839 -1.0613 284° West 484 557 34,000  Level FlightAware UK
08:18AM 53.5880 -1.0876 284° West 384 442 34,000  Level FlightAware ADS-B
08:18AM 53.5970 -1.1475 284° West 484 557 34,000  Level FlightAware UK
08:18AM 53.6022 -1.1831 284° West 383 441 34,000  Level FlightAware ADS-B
08:19AM 53.6122 -1.2508 284° West 484 557 34,000  Level FlightAware UK
08:19AM 53.6158 -1.2754 284° West 383 441 34,000  Level FlightAware ADS-B
08:19AM 53.6286 -1.3628 284° West 383 441 34,000  Level FlightAware ADS-B
08:20AM 53.6399 -1.4413 284° West 484 557 34,000  Level FlightAware UK
08:20AM 53.6450 -1.4761 284° West 383 441 34,000  Level FlightAware ADS-B
08:20AM 53.6526 -1.5279 284° West 484 557 34,000  Level FlightAware UK
08:20AM 53.6611 -1.5640 284° West 383 441 34,000  Level FlightAware ADS-B
08:21AM 53.6720 -1.6130 284° West 482 555 34,000  Level FlightAware UK
08:21AM 53.6894 -1.6891 284° West 389 448 34,000  Level FlightAware ADS-B
08:22AM 53.7129 -1.7921 291° West 389 448 34,000 -120 Level FlightAware ADS-B
08:22AM 53.7260 -1.8494 291° West 480 552 33,900  Descending FlightAware UK
08:22AM 53.7354 -1.8900 291° West 390 449 34,000 180 Climbing FlightAware ADS-B
08:23AM 53.7456 -1.9341 291° West 482 555 34,000  Level FlightAware UK
08:23AM 53.7580 -1.9870 291° West 390 449 34,000  Level FlightAware ADS-B
08:23AM 53.7693 -2.0354 291° West 482 555 34,000  Level FlightAware UK
08:24AM 53.7834 -2.0964 291° West 392 451 34,000  Level FlightAware ADS-B
08:24AM 53.8033 -2.1820 292° West 392 451 34,000  Level FlightAware ADS-B
08:25AM 53.8279 -2.2922 292° West 486 559 34,000  Level FlightAware UK
08:25AM 53.8340 -2.3300 292° West 386 444 34,000  Level FlightAware
08:25AM 53.8437 -2.3965 292° West 486 559 34,000  Level FlightAware UK
08:25AM 53.8430 -2.3960 292° West 382 440 34,000 -240 Level FlightAware
08:26AM 53.8521 -2.4841 292° West 484 557 33,900  Descending FlightAware UK
08:26AM 53.8601 -2.5718 279° West 486 559 34,000 180 Climbing FlightAware UK
08:26AM 53.8500 -2.4660 279° West 378 435 34,000  Level FlightAware
08:27AM 53.8680 -2.6598 279° West 488 562 34,000  Level FlightAware UK
08:27AM 53.8680 -2.6600 279° West 380 437 34,000 -180 Level FlightAware
08:28AM 53.8798 -2.8001 279° West 486 559 33,900  Descending FlightAware UK
08:28AM 53.8800 -2.8040 279° West 378 435 34,000 180 Climbing FlightAware
08:28AM 53.8869 -2.8880 279° West 486 559 34,000  Level FlightAware UK
08:28AM 53.8910 -2.9360 279° West 378 435 34,000  Level FlightAware
08:29AM 53.9010 -3.0560 278° West 378 435 34,000  Level FlightAware
08:30AM 53.9140 -3.1670 278° West 386 444 34,000  Level FlightAware
08:30AM 53.9174 -3.1851 278° West 486 559 34,000 -180 Level FlightAware UK
08:30AM 53.9447 -3.2863 278° West 484 557 33,900  Descending FlightAware UK
08:30AM 53.9480 -3.2960 278° West 404 465 34,000  Climbing FlightAware
08:31AM 53.9722 -3.3688 278° West 484 557 33,900  Descending FlightAware UK
08:31AM 53.9840 -3.4070 278° West 403 464 34,000 120 Climbing FlightAware
08:32AM 54.0157 -3.5016 278° West 484 557 34,000  Level FlightAware UK
08:32AM 54.0220 -3.5200 278° West 404 465 34,000  Level FlightAware
08:32AM 54.0431 -3.5846 278° West 484 557 34,000  Level FlightAware UK
08:33AM 54.0620 -3.6440 278° West 403 464 34,000 -120 Level FlightAware
08:33AM 54.1027 -3.7669 278° West 482 555 33,900  Descending FlightAware UK
08:33AM 54.1020 -3.7650 278° West 404 465 34,000 120 Climbing FlightAware
08:34AM 54.1340 -3.8620 278° West 405 466 34,000 -180 Level FlightAware
08:34AM 54.1406 -3.8837 278° West 484 557 33,900  Descending FlightAware UK
08:35AM 54.1770 -3.9940 299° West 404 465 34,000 60 Climbing FlightAware
08:35AM 54.2150 -4.1140 298° West 404 465 34,000 -120 Level FlightAware
08:36AM 54.2539 -4.2347 298° West 484 557 33,900  Descending FlightAware UK
08:36AM 54.2540 -4.2360 298° West 404 465 34,000 180 Climbing FlightAware
08:37AM 54.2807 -4.3188 298° West 484 557 34,000  Level FlightAware UK
08:37AM 54.2910 -4.3500 298° West 406 467 34,000 -240 Level FlightAware
08:37AM 54.3075 -4.4032 298° West 482 555 33,900  Descending FlightAware UK
08:37AM 54.3280 -4.4680 298° West 407 468 34,000  Climbing FlightAware
08:38AM 54.3613 -4.5728 298° West 482 555 33,900  Descending FlightAware UK
08:38AM 54.3650 -4.5850 298° West 406 467 34,000 120 Climbing FlightAware
08:39AM 54.3932 -4.6742 298° West 482 555 34,000  Level FlightAware UK
08:39AM 54.4010 -4.7000 298° West 408 470 34,000  Level FlightAware
08:39AM 54.4253 -4.7767 298° West 482 555 34,000  Level FlightAware UK
08:40AM 54.4410 -4.8260 298° West 408 470 34,000 -180 Level FlightAware
08:40AM 54.4574 -4.8793 298° West 480 552 33,900  Descending FlightAware UK
08:40AM 54.4730 -4.9300 298° West 409 471 34,000 60 Climbing FlightAware
08:41AM 54.5050 -5.0330 298° West 409 471 34,000 -180 Level FlightAware
08:41AM 54.5106 -5.0511 298° West 478 550 33,900  Descending FlightAware UK
08:41AM 54.5373 -5.1376 298° West 476 548 34,000 120 Climbing FlightAware UK
08:42AM 54.5500 -5.1780 298° West 414 476 34,000  Level FlightAware
08:42AM 54.5641 -5.2247 298° West 478 550 34,000  Level FlightAware UK
08:42AM 54.5850 -5.2920 298° West 417 480 34,000  Level FlightAware
08:43AM 54.6019 -5.3472 298° West 478 550 34,000  Level FlightAware UK
08:43AM 54.6220 -5.4120 298° West 420 483 34,000  Level FlightAware
08:44AM 54.6557 -5.5249 298° West 480 552 34,000  Level FlightAware UK
08:44AM 54.6570 -5.5300 298° West 423 487 34,000  Level FlightAware
08:44AM 54.6830 -5.6150 298° West 480 552 34,000  Level FlightAware UK
08:44AM 54.6990 -5.6680 298° West 426 490 34,000  Level FlightAware
08:45AM 54.7210 -5.7400 298° West 427 491 34,000  Level FlightAware
08:45AM 54.7375 -5.7961 298° West 478 550 34,000 240 Level FlightAware UK
08:46AM 54.7646 -5.8870 298° West 476 548 34,200 480 Climbing FlightAware UK
08:46AM 54.7910 -5.9750 298° West 430 495 34,500 540 Climbing FlightAware
08:47AM 54.8253 -6.0909 298° West 478 550 34,800 360 Climbing FlightAware UK
08:47AM 54.8360 -6.1290 298° West 435 501 34,900 180 Climbing FlightAware
08:48AM 54.8790 -6.2740 297° West 442 509 35,000  Climbing FlightAware
08:48AM 54.9144 -6.3935 297° West 486 559 34,900  Descending FlightAware UK
08:48AM 54.9210 -6.4160 297° West 442 509 35,000  Climbing FlightAware
08:49AM 54.9423 -6.4893 297° West 484 557 34,900  Descending FlightAware UK
08:49AM 54.9590 -6.5460 297° West 442 509 35,000  Climbing FlightAware
08:49AM 54.9755 -6.6043 297° West 484 557 34,900  Descending FlightAware UK
08:50AM 54.9930 -6.6640 297° West 443 510 35,000  Climbing FlightAware
08:50AM 55.0033 -6.7002 297° West 484 557 34,900  Descending FlightAware UK
08:50AM 55.0310 -6.7966 297° West 484 557 35,000  Climbing FlightAware UK
08:51AM 55.0586 -6.8933 297° West 482 555 34,900  Descending FlightAware UK
08:51AM 55.0610 -6.9020 297° West 445 512 35,000  Climbing FlightAware
08:51AM 55.0865 -6.9901 297° West 482 555 34,900  Descending FlightAware UK
08:52AM 55.0980 -7.0310 297° West 446 513 35,000 180 Climbing FlightAware
08:52AM 55.1141 -7.0874 297° West 480 552 35,000  Level FlightAware UK
08:52AM 55.1350 -7.1620 296° West 447 514 35,000  Level FlightAware
08:52AM 55.1416 -7.1851 296° West 482 555 35,000  Level FlightAware UK
08:53AM 55.1693 -7.2831 296° West 484 557 35,000  Level FlightAware UK
08:53AM 55.1760 -7.3060 296° West 450 518 35,000  Level FlightAware
08:53AM 55.1969 -7.3816 296° West 486 559 35,000  Level FlightAware UK
08:54AM 55.2120 -7.4370 296° West 450 518 35,000 -180 Level FlightAware
08:54AM 55.2409 -7.5393 296° West 484 557 34,900  Descending FlightAware UK
08:54AM 55.2540 -7.5880 296° West 452 520 35,000 60 Climbing FlightAware
08:55AM 55.2920 -7.7240 296° West 454 522 35,000  Level FlightAware
08:56AM 55.3236 -7.8386 296° West 484 557 35,000  Level FlightAware UK
08:56AM 55.3290 -7.8600 296° West 458 527 35,000  Level FlightAware
08:56AM 55.3510 -7.9391 296° West 486 559 35,000  Level FlightAware UK
08:57AM 55.3700 -8.0080 296° West 456 525 35,000  Level FlightAware
08:57AM 55.4060 -8.1409 296° West 488 562 35,000  Level FlightAware UK
08:57AM 55.4110 -8.1580 296° West 460 529 35,000  Level FlightAware
08:58AM 55.4389 -8.2625 296° West 486 559 35,000  Level FlightAware UK
08:58AM 55.4430 -8.2780 296° West 461 531 35,000 -240 Level FlightAware
08:58AM 55.4661 -8.3642 296° West 484 557 34,900  Descending FlightAware UK
08:59AM 55.4840 -8.4300 296° West 463 533 35,000 60 Climbing FlightAware
08:59AM 55.5208 -8.5686 296° West 486 559 35,000  Level FlightAware UK
08:59AM 55.5260 -8.5860 296° West 464 534 35,000  Level FlightAware
09:00AM 55.5482 -8.6713 296° West 486 559 35,000  Level FlightAware UK
09:00AM 55.5805 -8.7944 295° West 486 559 35,000  Level FlightAware UK
09:00AM 55.5720 -8.7630 295° West 465 535 35,000  Level FlightAware
09:01AM 55.6076 -8.8979 295° West 486 559 35,000  Level FlightAware UK
09:01AM 55.6220 -8.9520 295° West 467 537 35,000  Level FlightAware
09:02AM 55.6610 -9.1030 295° West 466 536 35,000  Level FlightAware
09:03AM 55.6930 -9.2240 295° West 467 537 35,000  Level FlightAware
09:03AM 55.7290 -9.3650 294° West 468 539 35,000  Level FlightAware
09:04AM 55.7680 -9.5200 294° West 468 539 35,000  Level FlightAware
09:05AM 55.8070 -9.6730 294° West 469 540 35,000  Level FlightAware
09:05AM 55.8440 -9.8190 294° West 470 541 35,000  Level FlightAware
09:06AM 55.8830 -9.9760 294° West 471 542 35,000  Level FlightAware
09:07AM 55.9100 -10.0840 294° West 468 539 35,000  Level FlightAware
09:07AM 55.9570 -10.2740 294° West 473 544 35,000  Level FlightAware
09:08AM 55.9960 -10.4360 293° West 470 541 35,000  Level FlightAware
09:09AM 56.0390 -10.6060 294° West 471 542 35,000  Level FlightAware
09:10AM 56.0730 -10.7560 292° West 471 542 35,000  Level FlightAware
09:11AM 56.1510 -11.0890 291° West 472 543 35,000  Level FlightAware
09:12AM 56.1458 -11.1060 291° West  Level FlightAware Approximate
09:12AM 56.1760 -11.2010 292° West 472 543 35,000  Level FlightAware
09:13AM 56.2350 -11.4340 295° West 476 548 35,000  Level FlightAware
09:14AM 56.2750 -11.6140 292° West 475 547 35,000  Level FlightAware
09:14AM 56.3190 -11.7940 294° West 35,000  Level FlightAware
09:15AM 56.3410 -11.8930 292° West 478 550 35,000 60 Level FlightAware
09:16AM 56.3720 -12.0290 292° West 477 549 35,100 60 Climbing FlightAware
09:17AM 56.4080 -12.1860 293° West 477 549 35,100  Level FlightAware
09:17AM 56.4330 -12.3000 292° West 477 549 35,100  Level FlightAware
09:18AM 56.4650 -12.4440 292° West 477 549 35,100  Level FlightAware
09:19AM 56.4900 -12.5580 292° West 477 549 35,100  Level FlightAware
09:19AM 56.5230 -12.7060 292° West 477 549 35,100  Level FlightAware
09:20AM 56.5490 -12.8190 293° West 477 549 35,100  Level FlightAware
09:21AM 56.5870 -12.9900 292° West 477 549 35,100  Level FlightAware
09:21AM 56.6130 -13.1100 292° West 477 549 35,100  Level FlightAware
09:22AM 56.6480 -13.2650 292° West 477 549 35,100  Level FlightAware
09:23AM 56.6730 -13.3790 292° West 477 549 35,100  Level FlightAware
09:24AM 56.7070 -13.5310 292° West 477 549 35,100  Level FlightAware
09:24AM 56.7410 -13.6860 292° West 477 549 35,100  Level FlightAware
09:25AM 56.7760 -13.8450 292° West 477 549 35,100  Level FlightAware
09:28AM 56.8903 -14.2976 292° West  Level FlightAware Approximate
09:29AM 56.9374 -14.5092 292° West  Level FlightAware Approximate
09:30AM 56.9841 -14.7214 292° West  Level FlightAware Approximate
09:31AM 57.0305 -14.9341 292° West  Level FlightAware Approximate
09:32AM 57.0762 -15.1457 292° West  Level FlightAware Approximate
09:33AM 57.1215 -15.3579 292° West  Level FlightAware Approximate
09:34AM 57.1665 -15.5705 291° West  Level FlightAware Approximate
09:35AM 57.2111 -15.7837 291° West  Level FlightAware Approximate
09:36AM 57.2553 -15.9974 291° West  Level FlightAware Approximate
09:37AM 57.2992 -16.2116 291° West  Level FlightAware Approximate
09:38AM 57.3427 -16.4263 291° West  Level FlightAware Approximate
09:39AM 57.3859 -16.6415 290° West  Level FlightAware Approximate
09:40AM 57.4286 -16.8572 290° West  Level FlightAware Approximate
09:41AM 57.4711 -17.0735 290° West  Level FlightAware Approximate
09:42AM 57.5131 -17.2902 290° West  Level FlightAware Approximate
09:43AM 57.5548 -17.5074 290° West  Level FlightAware Approximate
09:44AM 57.5961 -17.7251 290° West  Level FlightAware Approximate
09:45AM 57.6370 -17.9433 289° West  Level FlightAware Approximate
09:46AM 57.6775 -18.1620 289° West  Level FlightAware Approximate
09:47AM 57.7177 -18.3812 289° West  Level FlightAware Approximate
09:48AM 57.7575 -18.6009 289° West  Level FlightAware Approximate
09:49AM 57.7969 -18.8211 289° West  Level FlightAware Approximate
09:50AM 57.8359 -19.0417 288° West  Level FlightAware Approximate
09:50AM 58.0000 -20.0000 285° West 503 579 36,000  Level ETMS Enhanced Traffic Management System
09:51AM 57.8745 -19.2628 288° West  Level FlightAware Approximate
09:52AM 57.9128 -19.4844 288° West  Level FlightAware Approximate
09:53AM 57.9506 -19.7064 288° West  Level FlightAware Approximate
09:54AM 57.9881 -19.9289 288° West  Level FlightAware Approximate
09:55AM 58.0219 -20.1538 285° West  Level FlightAware Approximate
09:56AM 58.2090 -21.5381 284° West 503 579 36,000  Level FlightAware Transoceanic
09:57AM 58.2420 -21.7962 284° West 503 579 36,000  Level FlightAware Transoceanic
09:58AM 58.2745 -22.0548 283° West 503 579 36,000  Level FlightAware Transoceanic
09:59AM 58.3065 -22.3138 283° West 503 579 36,000  Level FlightAware Transoceanic
10:00AM 58.3380 -22.5733 283° West 503 579 36,000  Level FlightAware Transoceanic
10:01AM 58.3689 -22.8333 283° West 503 579 36,000  Level FlightAware Transoceanic
10:02AM 58.3993 -23.0937 282° West 503 579 36,000  Level FlightAware Transoceanic
10:03AM 58.4292 -23.3545 282° West 503 579 36,000  Level FlightAware Transoceanic
10:04AM 58.4585 -23.6158 282° West 503 579 36,000  Level FlightAware Transoceanic
10:05AM 58.4873 -23.8775 282° West 503 579 36,000  Level FlightAware Transoceanic
10:06AM 58.5156 -24.1397 282° West 503 579 36,000  Level FlightAware Transoceanic
10:07AM 58.5433 -24.4023 281° West 503 579 36,000  Level FlightAware Transoceanic
10:08AM 58.5705 -24.6652 281° West 503 579 36,000  Level FlightAware Transoceanic
10:09AM 58.5972 -24.9286 281° West 503 579 36,000  Level FlightAware Transoceanic
10:10AM 58.6233 -25.1924 281° West 503 579 36,000  Level FlightAware Transoceanic
10:11AM 58.6489 -25.4566 280° West 503 579 36,000  Level FlightAware Transoceanic
10:12AM 58.6740 -25.7211 280° West 503 579 36,000  Level FlightAware Transoceanic
10:13AM 58.6985 -25.9861 280° West 503 579 36,000  Level FlightAware Transoceanic
10:14AM 58.7224 -26.2514 280° West 503 579 36,000  Level FlightAware Transoceanic
10:15AM 58.7458 -26.5170 280° West 503 579 36,000  Level FlightAware Transoceanic
10:16AM 58.7687 -26.7830 279° West 503 579 36,000  Level FlightAware Transoceanic
10:17AM 58.7910 -27.0494 279° West 503 579 36,000  Level FlightAware Transoceanic
10:18AM 58.8128 -27.3161 279° West 503 579 36,000  Level FlightAware Transoceanic
10:19AM 58.8340 -27.5831 279° West 503 579 36,000  Level FlightAware Transoceanic
10:20AM 58.8547 -27.8505 278° West 503 579 36,000  Level FlightAware Transoceanic
10:21AM 58.8748 -28.1182 278° West 503 579 36,000  Level FlightAware Transoceanic
10:22AM 58.8943 -28.3861 278° West 503 579 36,000  Level FlightAware Transoceanic
10:23AM 58.9133 -28.6544 278° West 503 579 36,000  Level FlightAware Transoceanic
10:24AM 58.9318 -28.9230 277° West 503 579 36,000  Level FlightAware Transoceanic
10:25AM 58.9497 -29.1918 277° West 503 579 36,000  Level FlightAware Transoceanic
10:26AM 58.9670 -29.4610 277° West 503 579 36,000  Level FlightAware Transoceanic
10:27AM 58.9838 -29.7304 277° West 503 579 36,000  Level FlightAware Transoceanic
10:28AM 58.9982 -29.9691 277° West  Level FlightAware Approximate
10:29AM 59.0121 -30.2080 277° West  Level FlightAware Approximate
10:30AM 59.0067 -30.1777 274° West  Level FlightAware Approximate
10:31AM 59.0154 -30.4176 274° West  Level FlightAware Approximate
10:32AM 59.0237 -30.6576 274° West  Level FlightAware Approximate
10:33AM 59.0315 -30.8978 274° West  Level FlightAware Approximate
10:34AM 59.0389 -31.1380 274° West  Level FlightAware Approximate
10:35AM 59.0458 -31.3784 273° West  Level FlightAware Approximate
10:36AM 59.0523 -31.6188 273° West  Level FlightAware Approximate
10:37AM 59.0584 -31.8593 273° West  Level FlightAware Approximate
10:38AM 59.0640 -32.0999 273° West  Level FlightAware Approximate
10:39AM 59.0691 -32.3406 272° West  Level FlightAware Approximate
10:40AM 59.0738 -32.5814 272° West  Level FlightAware Approximate
10:41AM 59.0781 -32.8222 272° West  Level FlightAware Approximate
10:42AM 59.0819 -33.0630 272° West  Level FlightAware Approximate
10:43AM 59.0853 -33.3040 272° West  Level FlightAware Approximate
10:44AM 59.0882 -33.5449 271° West  Level FlightAware Approximate
10:45AM 59.0907 -33.7859 271° West  Level FlightAware Approximate
10:46AM 59.0927 -34.0270 271° West  Level FlightAware Approximate
10:47AM 59.0943 -34.2680 271° West  Level FlightAware Approximate
10:48AM 59.0954 -34.5091 271° West  Level FlightAware Approximate
10:49AM 59.0961 -34.7502 270° West  Level FlightAware Approximate
10:50AM 59.0963 -34.9913 270° West  Level FlightAware Approximate
10:51AM 59.0961 -35.2324 270° West  Level FlightAware Approximate
10:51AM 59.0833 -36.2667 269° West 520 598 36,000  Level Gander Center
10:52AM 59.0955 -35.4735 270° West  Level FlightAware Approximate
10:52AM 59.0833 -36.5333 270° West 510 587 36,000  Level Gander Center
10:53AM 59.0944 -35.7146 270° West  Level FlightAware Approximate
10:53AM 59.0833 -36.8167 270° West 510 587 36,000  Level Gander Center
10:54AM 59.0928 -35.9556 269° West  Level FlightAware Approximate
10:54AM 59.0833 -37.0500 270° West 510 587 36,000  Level Gander Center
10:55AM 59.0908 -36.1967 269° West  Level FlightAware Approximate
10:55AM 59.0833 -37.3333 270° West 510 587 36,000  Level Gander Center
10:56AM 59.0884 -36.4377 269° West  Level FlightAware Approximate
10:56AM 59.0833 -37.6000 270° West 510 587 36,000  Level Gander Center
10:57AM 59.0855 -36.6786 269° West  Level FlightAware Approximate
10:57AM 59.0667 -37.8833 264° West 510 587 36,000  Level Gander Center
10:58AM 59.0667 -38.1500 270° West 510 587 36,000  Level Gander Center
10:59AM 59.0500 -38.4333 264° West 510 587 36,000  Level Gander Center
11:00AM 59.0500 -38.7000 270° West 510 587 36,000  Level Gander Center
11:01AM 59.0500 -38.9833 270° West 510 587 36,000  Level Gander Center
11:02AM 59.0333 -39.2500 263° West 510 587 36,000  Level Gander Center
11:03AM 59.0167 -39.5333 264° West 510 587 36,000  Level Gander Center
11:04AM 59.0167 -39.8000 270° West 510 587 36,000  Level Gander Center
11:05AM 58.9833 -40.0500 256° West 510 587 36,000  Level Gander Center
11:06AM 58.9333 -40.3167 250° West 520 598 36,000  Level Gander Center
11:07AM 58.9167 -40.5667 263° West 510 587 36,000  Level Gander Center
11:08AM 58.8667 -40.8333 250° West 510 587 36,000  Level Gander Center
11:09AM 58.8167 -41.0833 249° West 510 587 36,000  Level Gander Center
11:10AM 58.7667 -41.3500 250° West 510 587 36,000  Level Gander Center
11:11AM 58.7500 -41.6000 263° West 510 587 36,000  Level Gander Center
11:12AM 58.7000 -41.8500 249° West 510 587 36,000  Level Gander Center
11:13AM 58.6500 -42.1167 250° West 510 587 36,000  Level Gander Center
11:14AM 58.6000 -42.3667 249° West 520 598 36,000  Level Gander Center
11:15AM 58.5500 -42.6333 250° West 520 598 36,000  Level Gander Center
11:16AM 58.5167 -42.9000 257° West 520 598 36,000  Level Gander Center
11:17AM 58.4667 -43.1500 249° West 520 598 36,000  Level Gander Center
11:18AM 58.4167 -43.4167 250° West 520 598 36,000  Level Gander Center
11:19AM 58.3667 -43.6667 249° West 520 598 36,000  Level Gander Center
11:20AM 58.3167 -43.9167 249° West 520 598 36,000  Level Gander Center
11:21AM 58.2667 -44.2000 252° West 520 598 36,000  Level Gander Center
11:22AM 58.2333 -44.4500 256° West 520 598 36,000  Level Gander Center
11:23AM 58.1833 -44.7000 249° West 520 598 36,000  Level Gander Center
11:24AM 58.1333 -44.9500 249° West 510 587 36,000  Level Gander Center
11:25AM 58.0833 -45.2000 249° West 510 587 36,000  Level Gander Center
11:26AM 58.0333 -45.4333 248° West 510 587 36,000  Level Gander Center
11:27AM 57.9833 -45.6833 249° West 500 575 36,000  Level Gander Center
11:28AM 57.9333 -45.9333 249° West 500 575 36,000  Level Gander Center
11:29AM 57.8833 -46.1667 248° West 500 575 36,000  Level Gander Center
11:30AM 57.8333 -46.4167 250° West 500 575 36,000  Level Gander Center
11:31AM 57.7833 -46.6667 250° West 500 575 36,000  Level Gander Center
11:32AM 57.7333 -46.9000 248° West 500 575 36,000  Level Gander Center
11:33AM 57.6667 -47.1167 240° Southwest 500 575 36,000  Level Gander Center
11:34AM 57.6167 -47.3667 250° West 500 575 36,000  Level Gander Center
11:35AM 57.5667 -47.6000 248° West 500 575 36,000  Level Gander Center
11:36AM 57.5167 -47.8333 248° West 500 575 36,000  Level Gander Center
11:37AM 57.4500 -48.0833 244° Southwest 500 575 36,000  Level Gander Center
11:38AM 57.4167 -48.3167 255° West 500 575 36,000  Level Gander Center
11:39AM 57.3500 -48.5500 242° Southwest 500 575 36,000  Level Gander Center
11:40AM 57.3000 -48.7667 247° West 500 575 36,000  Level Gander Center
11:41AM 57.2333 -49.0000 242° Southwest 500 575 36,000  Level Gander Center
11:42AM 57.1833 -49.2333 249° West 500 575 36,000  Level Gander Center
11:43AM 57.1333 -49.4667 249° West 490 564 36,000  Level Gander Center
11:44AM 57.0667 -49.7000 242° Southwest 490 564 36,000  Level Gander Center
11:45AM 57.0167 -49.9000 245° Southwest 490 564 36,000  Level Gander Center
11:46AM 56.9667 -50.1333 249° West 480 552 36,000  Level Gander Center
11:47AM 56.9500 -50.3000 260° West 480 552 36,000  Level Gander Center
11:47AM 56.9333 -50.4000 253° West 480 552 36,000  Level Gander Center
11:49AM 56.8825 -50.6226 247° West  Level FlightAware Approximate
11:56AM 56.5340 -52.0910 247° West  Level FlightAware Approximate
11:57AM 56.4828 -52.2985 246° West  Level FlightAware Approximate
11:58AM 56.4313 -52.5055 246° West  Level FlightAware Approximate
11:59AM 56.3794 -52.7119 246° West  Level FlightAware Approximate
12:00PM 56.3272 -52.9178 245° Southwest  Level FlightAware Approximate
12:01PM 56.2746 -53.1231 245° Southwest  Level FlightAware Approximate
12:02PM 56.2217 -53.3278 245° Southwest  Level FlightAware Approximate
12:03PM 56.1684 -53.5319 245° Southwest  Level FlightAware Approximate
12:04PM 56.1149 -53.7355 245° Southwest  Level FlightAware Approximate
12:05PM 56.0610 -53.9385 245° Southwest  Level FlightAware Approximate
12:06PM 56.0067 -54.1410 244° Southwest  Level FlightAware Approximate
12:07PM 55.9521 -54.3429 244° Southwest  Level FlightAware Approximate
12:08PM 55.8973 -54.5442 244° Southwest  Level FlightAware Approximate
12:09PM 55.8420 -54.7449 244° Southwest  Level FlightAware Approximate
12:10PM 55.7865 -54.9451 244° Southwest  Level FlightAware Approximate
12:11PM 55.7306 -55.1447 244° Southwest  Level FlightAware Approximate
12:12PM 55.6892 -55.3550 251° West  Level Estimated
12:13PM 55.6474 -55.5648 251° West  Level Estimated
12:13PM 55.7500 -56.1167 250° West 470 541 36,000  Level Gander Center
12:14PM 55.6052 -55.7743 250° West  Level Estimated
12:14PM 55.7000 -56.3000 244° Southwest 460 529 36,000  Level Gander Center
12:15PM 55.5628 -55.9832 250° West  Level Estimated
12:15PM 55.6500 -56.5167 248° West 460 529 36,000  Level Gander Center
12:16PM 55.5199 -56.1917 250° West  Level Estimated
12:16PM 55.6000 -56.7333 248° West 460 529 36,000  Level Gander Center
12:17PM 55.4767 -56.3998 250° West  Level Estimated
12:17PM 55.5500 -56.9333 246° West 460 529 36,000  Level Gander Center
12:18PM 55.4332 -56.6074 250° West  Level Estimated
12:18PM 55.4833 -57.1167 237° Southwest 460 529 36,000  Level Gander Center
12:19PM 55.4333 -57.3667 251° West 460 529 36,000  Level Gander Center
12:20PM 55.3833 -57.5500 244° Southwest 460 529 36,000  Level Gander Center
12:21PM 55.3333 -57.7500 246° West 460 529 36,000  Level Gander Center
12:22PM 55.2667 -57.9667 242° Southwest 460 529 36,000  Level Gander Center
12:23PM 55.2333 -58.1500 252° West 460 529 36,000  Level Gander Center
12:24PM 55.1667 -58.3500 240° Southwest 460 529 36,000  Level Gander Center
12:25PM 55.1167 -58.5667 248° West 450 518 36,000  Level Gander Center
12:26PM 55.0667 -58.7667 246° West 450 518 36,000  Level Gander Center
12:27PM 55.0167 -58.9500 245° Southwest 450 518 36,000  Level Gander Center
12:28PM 54.9500 -59.1500 240° Southwest 450 518 36,000  Level Gander Center
12:29PM 54.9000 -59.3333 245° Southwest 450 518 36,000  Level Gander Center
12:30PM 54.8333 -59.5333 240° Southwest 450 518 36,000  Level Gander Center
12:31PM 54.7833 -59.7167 245° Southwest 440 506 36,000  Level Gander Center
12:32PM 54.7500 -59.9167 254° West 440 506 36,000  Level Gander Center
12:33PM 54.6833 -60.1333 242° Southwest 450 518 36,000  Level Gander Center
12:34PM 54.6333 -60.3000 243° Southwest 450 518 36,000 300 Level Gander Center
12:35PM 54.5667 -60.5000 240° Southwest 440 506 36,600 600 Climbing Gander Center
12:36PM 54.5167 -60.6833 245° Southwest 440 506 37,200 600 Climbing Gander Center
12:37PM 54.4500 -60.8833 240° Southwest 440 506 37,800 360 Climbing Gander Center
12:38PM 54.4000 -61.0500 243° Southwest 440 506 38,000 60 Climbing Gander Center
12:39PM 54.3333 -61.2500 240° Southwest 450 518 38,000  Level Gander Center
12:40PM 54.2833 -61.4333 245° Southwest 450 518 38,000  Level Gander Center
12:41PM 54.2167 -61.6333 240° Southwest 450 518 38,000  Level Gander Center
12:42PM 54.1667 -61.8167 245° Southwest 450 518 38,000  Level Gander Center
12:43PM 54.1167 -62.0000 245° Southwest 460 529 38,000  Level Gander Center
12:44PM 54.0500 -62.2000 240° Southwest 460 529 38,000  Level Gander Center
12:45PM 54.0000 -62.3833 245° Southwest 460 529 38,000  Level Gander Center
12:46PM 53.9167 -62.5833 235° Southwest 460 529 38,000  Level Gander Center
12:47PM 53.8500 -62.7500 236° Southwest 460 529 38,000  Level Gander Center
12:48PM 53.8000 -62.9500 247° West 460 529 38,000  Level Gander Center
12:49PM 53.7333 -63.1500 241° Southwest 460 529 38,000  Level Gander Center
12:50PM 53.6833 -63.3500 247° West 460 529 38,000  Level Gander Center
12:51PM 53.6167 -63.5333 239° Southwest 460 529 38,000  Level Gander Center
12:52PM 53.5500 -63.7000 236° Southwest 460 529 38,000  Level Gander Center
12:53PM 53.4833 -63.9000 241° Southwest 450 518 38,000  Level Gander Center
12:54PM 53.4333 -64.0833 245° Southwest 460 529 38,000  Level Gander Center
12:55PM 53.3667 -64.2833 241° Southwest 460 529 38,000  Level Gander Center
12:56PM 53.3000 -64.4500 236° Southwest 460 529 38,000  Level Gander Center
12:57PM 53.2333 -64.6333 239° Southwest 450 518 38,000  Level Gander Center
12:58PM 53.1833 -64.8333 247° West 460 529 38,000  Level Gander Center
12:59PM 53.1000 -65.0167 233° Southwest 460 529 38,000  Level Gander Center
01:00PM 53.0333 -65.1833 236° Southwest 460 529 38,000  Level Gander Center
01:01PM 52.9833 -65.3667 246° West 460 529 38,000  Level Gander Center
01:02PM 52.9000 -65.5500 233° Southwest 460 529 38,000  Level Gander Center
01:03PM 52.8500 -65.7333 246° West 460 529 38,000  Level Gander Center
01:04PM 52.7667 -65.9000 230° Southwest 460 529 38,000  Level Gander Center
01:05PM 52.7167 -66.0833 246° West 460 529 38,000  Level Gander Center
01:06PM 52.6333 -66.2667 233° Southwest 460 529 38,000  Level Gander Center
01:07PM 52.5833 -66.4667 248° West 460 529 38,000  Level Gander Center
01:08PM 52.5167 -66.5333 211° Southwest 450 518 38,000  Level Montreal Center
01:09PM 52.4500 -66.7167 239° Southwest 460 529 38,000  Level Montreal Center
01:10PM 52.3833 -66.9000 239° Southwest 460 529 38,000  Level Montreal Center
01:11PM 52.3333 -67.0833 246° West 460 529 38,000  Level Montreal Center
01:12PM 52.2500 -67.2667 233° Southwest 460 529 38,000  Level Montreal Center
01:13PM 52.1833 -67.4333 237° Southwest 450 518 38,000  Level Montreal Center
01:14PM 52.1167 -67.6167 239° Southwest 450 518 38,000  Level Montreal Center
01:15PM 52.0333 -67.7667 228° Southwest 450 518 38,000  Level Montreal Center
01:16PM 51.9667 -67.9500 240° Southwest 450 518 38,000  Level Montreal Center
01:17PM 51.8833 -68.2000 242° Southwest 450 518 38,000  Level Gander Center
01:18PM 51.8333 -68.2667 219° Southwest 450 518 38,000  Level Montreal Center
01:19PM 51.7667 -68.4500 240° Southwest 450 518 38,000  Level Montreal Center
01:20PM 51.7167 -68.6167 244° Southwest 450 518 38,000  Level Montreal Center
01:21PM 51.6333 -68.8000 234° Southwest 440 506 38,000  Level Montreal Center
01:22PM 51.5667 -68.9500 234° Southwest 440 506 38,000  Level Montreal Center
01:23PM 51.4833 -69.1167 231° Southwest 440 506 38,000  Level Montreal Center
01:24PM 51.4333 -69.2833 244° Southwest 450 518 38,000  Level Montreal Center
01:25PM 51.3500 -69.4667 234° Southwest 450 518 38,000  Level Montreal Center
01:26PM 51.3000 -69.6333 244° Southwest 440 506 38,000  Level Montreal Center
01:27PM 51.2167 -69.8000 231° Southwest 440 506 38,000  Level Montreal Center
01:28PM 51.1667 -69.9500 242° Southwest 440 506 38,000  Level Montreal Center
01:29PM 51.1000 -70.1500 242° Southwest 440 506 38,000  Level Montreal Center
01:30PM 51.0500 -70.2833 239° Southwest 450 518 38,000  Level Montreal Center
01:31PM 50.9667 -70.4833 237° Southwest 450 518 38,000  Level Montreal Center
01:32PM 50.9167 -70.6500 245° Southwest 450 518 38,000  Level Montreal Center
01:33PM 50.8333 -70.8167 232° Southwest 450 518 38,000  Level Montreal Center
01:34PM 50.7500 -71.0500 241° Southwest 460 529 38,000  Level Gander Center
01:35PM 50.7000 -71.1500 232° Southwest 450 518 38,000  Level Montreal Center
01:41PM 50.2910 -72.1820 232° Southwest 463 533 38,000  Level FlightAware
01:42PM 50.2430 -72.2940 236° Southwest 464 534 38,000  Level FlightAware
01:42PM 50.1930 -72.4130 237° Southwest 464 534 38,000  Level FlightAware
01:43PM 50.1490 -72.5190 237° Southwest 465 535 38,000  Level FlightAware
01:44PM 50.1000 -72.6320 236° Southwest 466 536 38,000  Level FlightAware
01:44PM 50.0470 -72.7560 236° Southwest 467 537 38,000  Level FlightAware
01:45PM 49.9880 -72.8940 236° Southwest 468 539 38,000  Level FlightAware
01:46PM 49.9470 -72.9880 236° Southwest 469 540 38,000  Level FlightAware
01:47PM 49.8870 -73.1240 236° Southwest 469 540 38,000  Level FlightAware
01:47PM 49.8480 -73.2110 235° Southwest 469 540 38,000  Level FlightAware
01:48PM 49.7950 -73.3280 235° Southwest 469 540 38,000  Level FlightAware
01:49PM 49.7530 -73.4190 234° Southwest 469 540 38,000  Level FlightAware
01:49PM 49.7140 -73.5060 235° Southwest 469 540 38,000  Level FlightAware
01:50PM 49.6730 -73.5970 235° Southwest 469 540 38,000  Level FlightAware
01:51PM 49.6230 -73.7070 235° Southwest 469 540 38,000  Level FlightAware
01:51PM 49.5850 -73.7910 235° Southwest 469 540 38,000  Level FlightAware
01:52PM 49.5360 -73.8980 235° Southwest 469 540 38,000  Level FlightAware
01:53PM 49.4950 -73.9880 235° Southwest 469 540 38,000  Level FlightAware
01:54PM 49.4440 -74.1000 235° Southwest 469 540 38,000  Level FlightAware
01:54PM 49.4080 -74.1790 235° Southwest 469 540 38,000  Level FlightAware
01:55PM 49.3400 -74.3300 235° Southwest 469 540 38,000  Level FlightAware
01:56PM 49.3040 -74.4090 235° Southwest 469 540 38,000  Level FlightAware
01:57PM 49.1167 -74.8167 235° Southwest 460 529 38,000  Level Montreal Center
01:58PM 49.0500 -74.9667 236° Southwest 460 529 38,000  Level Montreal Center
01:59PM 48.9667 -75.1167 230° Southwest 460 529 38,000  Level Montreal Center
02:00PM 48.9000 -75.3000 241° Southwest 460 529 38,000  Level Montreal Center
02:01PM 48.8167 -75.4500 230° Southwest 460 529 38,000  Level Montreal Center
02:02PM 48.7500 -75.6167 239° Southwest 470 541 38,000  Level Montreal Center
02:03PM 48.6667 -75.7833 233° Southwest 470 541 38,000  Level Montreal Center
02:04PM 48.6000 -75.9333 236° Southwest 460 529 38,000  Level Montreal Center
02:05PM 48.5167 -76.1000 233° Southwest 470 541 38,000  Level Montreal Center
02:06PM 48.4333 -76.2500 230° Southwest 470 541 38,000  Level Montreal Center
02:07PM 48.3667 -76.4167 239° Southwest 470 541 38,000  Level Montreal Center
02:12PM 47.9610 -77.2190 239° Southwest 38,000  Level FlightAware
02:13PM 47.9150 -77.3110 233° Southwest 466 536 38,000  Level FlightAware
02:14PM 47.8250 -77.4850 232° Southwest 466 536 38,000  Level FlightAware
02:14PM 47.7730 -77.5860 233° Southwest 466 536 38,000  Level FlightAware
02:15PM 47.7320 -77.6650 232° Southwest 466 536 38,000  Level FlightAware
02:16PM 47.6640 -77.7940 232° Southwest 466 536 38,000  Level FlightAware
02:17PM 47.6240 -77.8690 232° Southwest 466 536 38,000  Level FlightAware
02:17PM 47.5710 -77.9690 232° Southwest 466 536 38,000  Level FlightAware
02:18PM 47.5270 -78.0530 232° Southwest 466 536 38,000  Level FlightAware
02:19PM 47.4750 -78.1510 232° Southwest 466 536 38,000  Level FlightAware
02:19PM 47.4350 -78.2280 232° Southwest 466 536 38,000  Level FlightAware
02:20PM 47.3800 -78.3320 232° Southwest 466 536 38,000  Level FlightAware
02:21PM 47.3370 -78.4130 232° Southwest 466 536 38,000  Level FlightAware
02:22PM 47.2690 -78.5410 232° Southwest 466 536 38,000  Level FlightAware
02:23PM 47.2310 -78.6140 233° Southwest 466 536 38,000  Level FlightAware
02:23PM 47.1740 -78.7200 232° Southwest 466 536 38,000  Level FlightAware
02:24PM 47.1310 -78.8010 232° Southwest 466 536 38,000  Level FlightAware
02:27PM 46.7840 -79.4470 232° Southwest 457 526 38,000  Level FlightAware
02:28PM 46.7290 -79.5450 231° Southwest 458 527 38,000  Level FlightAware
02:29PM 46.6500 -79.6900 232° Southwest 462 532 38,000  Level FlightAware
02:29PM 46.6050 -79.7690 230° Southwest 462 532 38,000  Level FlightAware
02:30PM 46.5680 -79.8350 231° Southwest 462 532 38,000  Level FlightAware
02:31PM 46.5060 -79.9460 231° Southwest 464 534 38,000  Level FlightAware
02:32PM 46.4250 -80.0890 231° Southwest 466 536 38,000  Level FlightAware
02:32PM 46.3550 -80.2150 231° Southwest 466 536 38,000  Level FlightAware
02:33PM 46.2910 -80.3280 231° Southwest 464 534 38,000  Level FlightAware
02:34PM 46.2360 -80.4240 230° Southwest 463 533 38,000  Level FlightAware
02:34PM 46.1840 -80.5160 231° Southwest 463 533 38,000  Level FlightAware
02:35PM 46.1330 -80.6040 230° Southwest 463 533 38,000  Level FlightAware
02:36PM 46.0570 -80.7370 231° Southwest 465 535 38,000  Level FlightAware
02:37PM 45.9810 -80.8690 230° Southwest 467 537 38,000  Level FlightAware
02:37PM 45.9560 -80.9110 229° Southwest 467 537 38,000  Level FlightAware
02:38PM 45.8680 -81.0640 230° Southwest 465 535 38,000  Level FlightAware
02:39PM 45.8010 -81.1740 229° Southwest 467 537 38,000  Level FlightAware
02:40PM 45.7510 -81.2620 231° Southwest 465 535 38,000  Level FlightAware
02:41PM 45.6830 -81.3780 230° Southwest 462 532 38,000  Level FlightAware
02:41PM 45.6260 -81.4750 230° Southwest 38,000  Level FlightAware
02:42PM 45.5410 -81.6180 230° Southwest 458 527 38,000  Level FlightAware
02:43PM 45.4770 -81.7240 229° Southwest 457 526 38,000  Level FlightAware
02:44PM 45.4220 -81.8170 230° Southwest 456 525 38,000  Level FlightAware
02:44PM 45.3650 -81.9120 230° Southwest 454 522 38,000  Level FlightAware
02:45PM 45.3150 -81.9950 229° Southwest 453 521 38,000  Level FlightAware
02:46PM 45.2280 -82.1390 229° Southwest 453 521 38,000  Level FlightAware
02:47PM 45.1570 -82.2550 229° Southwest 453 521 38,000  Level FlightAware
02:48PM 45.1110 -82.3310 229° Southwest 455 524 38,000  Level FlightAware
02:48PM 45.0420 -82.4440 229° Southwest 457 526 38,000  Level FlightAware
02:49PM 44.9780 -82.5470 229° Southwest 459 528 38,000  Level FlightAware
02:50PM 44.9230 -82.6370 229° Southwest 460 529 38,000  Level FlightAware
02:51PM 44.8410 -82.7690 229° Southwest 462 532 38,000  Level FlightAware
02:51PM 44.7870 -82.8560 229° Southwest 464 534 38,000  Level FlightAware
02:52PM 44.7340 -82.9420 229° Southwest 464 534 38,000  Level FlightAware
02:53PM 44.6680 -83.0470 229° Southwest 466 536 38,000  Level FlightAware
02:53PM 44.6060 -83.1460 229° Southwest 466 536 38,000  Level FlightAware
02:54PM 44.5450 -83.2420 228° Southwest 468 539 38,000  Level FlightAware
02:55PM 44.4870 -83.3350 229° Southwest 468 539 38,000  Level FlightAware
02:55PM 44.4520 -83.4050 235° Southwest 455 524 38,000 -420 Level FlightAware
02:56PM 44.4300 -83.4840 249° West 439 505 37,600 -1,020 Descending FlightAware
02:56PM 44.4050 -83.5930 252° West 442 509 37,000 -840 Descending FlightAware
02:57PM 44.3690 -83.6960 244° Southwest 446 513 36,500 -780 Descending FlightAware
02:58PM 44.3240 -83.7990 239° Southwest 449 517 36,000 -360 Descending FlightAware
02:59PM 44.2760 -83.9100 239° Southwest 450 518 36,000  Level FlightAware
02:59PM 44.2320 -84.0130 239° Southwest 450 518 36,000 -180 Level FlightAware
03:00PM 44.1840 -84.1210 238° Southwest 442 509 35,800 -480 Descending FlightAware
03:01PM 44.1290 -84.2470 239° Southwest 438 504 35,300 -660 Descending FlightAware
03:02PM 44.0850 -84.3470 239° Southwest 438 504 34,800 -840 Descending FlightAware
03:02PM 44.0380 -84.4530 238° Southwest 443 510 34,100 -600 Descending FlightAware
03:03PM 43.9920 -84.5570 238° Southwest 451 519 34,000 -120 Descending FlightAware
03:04PM 43.9480 -84.6550 238° Southwest 452 520 34,000  Level FlightAware
03:04PM 43.9000 -84.7620 238° Southwest 452 520 34,000  Level FlightAware
03:05PM 43.8540 -84.8640 238° Southwest 452 520 34,000 -480 Level FlightAware
03:06PM 43.8090 -84.9630 238° Southwest 454 522 33,400 -1,080 Descending FlightAware
03:06PM 43.7580 -85.0770 238° Southwest 463 533 32,500 -1,020 Descending FlightAware
03:07PM 43.7120 -85.1700 236° Southwest 472 543 32,000 -360 Descending FlightAware
03:08PM 43.6230 -85.2380 209° Southwest 494 568 32,000  Level FlightAware
03:09PM 43.5380 -85.2650 193° South 495 570 32,000  Level FlightAware
03:09PM 43.4390 -85.2950 192° South 494 568 32,000  Level FlightAware
03:10PM 43.3420 -85.3250 193° South 495 570 32,000 -600 Level FlightAware
03:11PM 43.2520 -85.3530 193° South 487 560 31,000 -1,920 Descending FlightAware
03:12PM 43.0980 -85.4010 193° South 468 539 28,400 -2,100 Descending FlightAware
03:13PM 43.0150 -85.4270 193° South 463 533 28,000 -360 Descending FlightAware
03:13PM 42.9330 -85.4520 193° South 461 531 28,000 -1,140 Level FlightAware
03:14PM 42.8450 -85.4810 194° South 435 501 26,500 -1,560 Descending FlightAware
03:14PM 42.8000 -85.5200 212° Southwest 382 440 26,100 -900 Descending FlightAware
03:15PM 42.7680 -85.6000 241° Southwest 337 388 25,500 -900 Descending FlightAware
03:16PM 42.7540 -85.6770 256° West 342 394 25,000 -660 Descending FlightAware
03:17PM 42.7360 -85.7810 257° West 333 383 24,600 -780 Descending FlightAware
03:17PM 42.7220 -85.8600 256° West 318 366 23,900 -1,200 Descending FlightAware
03:18PM 42.7070 -85.9410 256° West 305 351 23,000 -1,140 Descending FlightAware
03:19PM 42.6920 -86.0200 256° West 300 345 22,300 -1,020 Descending FlightAware
03:19PM 42.6780 -86.0960 256° West 293 337 21,600 -1,020 Descending FlightAware
03:20PM 42.6640 -86.1730 256° West 295 339 20,900 -1,080 Descending FlightAware
03:21PM 42.6510 -86.2450 256° West 293 337 20,200 -1,020 Descending FlightAware
03:21PM 42.6370 -86.3210 256° West 289 333 19,500 -1,020 Descending FlightAware
03:22PM 42.6230 -86.3930 255° West 286 329 18,800 -1,020 Descending FlightAware
03:23PM 42.6100 -86.4660 256° West 280 322 18,100 -1,020 Descending FlightAware
03:24PM 42.5960 -86.5360 255° West 276 318 17,400 -1,020 Descending FlightAware
03:24PM 42.5830 -86.6060 256° West 276 318 16,700 -1,020 Descending FlightAware
03:25PM 42.5750 -86.6510 256° West 276 318 16,300 -1,020 Descending FlightAware
03:25PM 42.5620 -86.7190 255° West 278 320 15,600 -1,080 Descending FlightAware
03:26PM 42.5410 -86.7950 249° West 276 318 14,800 -960 Descending FlightAware
03:27PM 42.5240 -86.8600 250° West 273 314 14,200 -1,140 Descending FlightAware
03:27PM 42.5060 -86.9260 250° West 270 311 13,300 -1,500 Descending FlightAware
03:28PM 42.4880 -86.9920 250° West 278 320 12,200 -1,620 Descending FlightAware
03:29PM 42.4710 -87.0540 250° West 277 319 11,200 -840 Descending FlightAware
03:30PM 42.4510 -87.1270 250° West 269 310 11,100 -660 Descending FlightAware
03:30PM 42.4330 -87.1920 249° West 267 307 10,300 -1,260 Descending FlightAware
03:30PM 42.4280 -87.2120 251° West 270 311 10,000 -1,440 Descending FlightAware
03:31PM 42.4140 -87.2630 250° West 266 306 9,300 -1,020 Descending FlightAware
03:31PM 42.4050 -87.2950 249° West 269 310 9,100 -180 Descending FlightAware
03:32PM 42.3900 -87.3410 246° West 269 310 9,100 -120 Level FlightAware
03:33PM 42.3660 -87.4130 246° West 266 306 9,000 -780 Descending FlightAware
03:33PM 42.3530 -87.4530 246° West 265 305 8,400 -1,380 Descending FlightAware
03:34PM 42.3370 -87.5010 246° West 263 303 7,700 -1,260 Descending FlightAware
03:34PM 42.3200 -87.5370 237° Southwest 266 306 7,200 -720 Descending FlightAware
03:34PM 42.2940 -87.5680 221° Southwest 266 306 7,100 -120 Descending FlightAware
03:35PM 42.2740 -87.5900 219° Southwest 259 298 7,100  Level FlightAware
03:35PM 42.2550 -87.6110 219° Southwest 238 274 7,100 -420 Level FlightAware
03:36PM 42.2330 -87.6350 219° Southwest 226 260 6,800 -960 Descending FlightAware
03:36PM 42.2230 -87.6470 222° Southwest 230 265 6,500 -1,500 Descending FlightAware
03:36PM 42.1990 -87.6730 219° Southwest 232 267 5,800 -1,320 Descending FlightAware
03:37PM 42.1770 -87.6980 220° Southwest 218 251 5,300 -1,200 Descending FlightAware
03:37PM 42.1550 -87.7220 219° Southwest 208 239 4,700 -1,140 Descending FlightAware
03:38PM 42.1330 -87.7470 220° Southwest 208 239 4,200 -1,080 Descending FlightAware
03:38PM 42.1130 -87.7680 218° Southwest 203 234 3,700 -1,140 Descending FlightAware
03:39PM 42.0940 -87.7900 221° Southwest 198 228 3,200 -1,080 Descending FlightAware
03:39PM 42.0740 -87.8120 219° Southwest 192 221 2,700 -900 Descending FlightAware
03:39PM 42.0660 -87.8210 220° Southwest 187 215 2,600 -900 Descending FlightAware
03:40PM 42.0470 -87.8420 219° Southwest 170 196 2,100 -1,020 Descending FlightAware
03:40PM 42.0290 -87.8610 218° Southwest 148 170 1,600 -960 Descending FlightAware
03:41PM 42.0180 -87.8740 221° Southwest 152 175 1,300 -840 Descending FlightAware
03:41PM 42.0010 -87.8920 218° Southwest 155 178 900 -840 Descending FlightAware
03:42PM 41.9870 -87.9080 220° Southwest 105 121 -2,040 Descending FlightAware
03:42PM 41.9830 -87.9120 217° Southwest 24 28  Level FlightAware
03:43PM 41.9820 -87.9120 180° South 16 18  Level FlightAware
03:43PM 41.9820 -87.9100 90° East 33 38  Level FlightAware